Le Roy, Illinois
Current Conditions -  °F | °C
As of 7:56 PM on Saturday 25 Oct 2014 (Local Time) from KBMI Reporting Station
Clear Clear  
Wind Chill: 62°   Ceiling: Unl
Heat Index: 62°   Visibility: 10mi
Dew Point: 40°   Wind: 9mph
Humidity: 44%   Direction: 290°WNW
Pressure: 30"   Gusts: NA
Location:  40.35°N, 88.76°W
Report Text: KBMI 260056Z 29008KT 10SM CLR 17/04 A3000 RMK AO2 T01660044 SLP158
Loading
Personal Weather Stations






























Interactive Weather Map New forecast layout! Learn more

10-Day Weather Forecast

Advertisements
Track Severe Weather on mobile